12°C Temp
7°C Dewpoint
72% Humidity
Temperature
10 KM/H
6 MPH
5 KTS
250°
West South
West

Wind Speed
Clear
Conditions
Pressure 1012.92 (hPa) - 29.91 (in)
Visibility 6.2 (mi) - 10.0 (km)

Current Conditions
EGNJ
Location 20(mi)
Metar :EGNJ 202050Z AUTO 25005KT 9999 NCD 12/07 Q1013
Thu 20th June 21:50 pm

Airport
  Metar Aviation API Data Provided by https://www.checkwx.com/ PHP scripts by weather34.com ©2019